XBHLO KNEW-KFTY
Flight info
| Callsign | XBHLO |
|---|---|
| Flight time | 1h 55m |
| Altitude | 11000 |
| Route | GARTS DCT MGM DCT KEEPS BOKRT3 |
| Aircraft | AEST/L-SBDFGRY/S |
Departure
| Time | 2026-04-21 01:49 |
|---|---|
| Airport | Lakefront Airport (KNEW) |
Arrival
| Time | 2026-04-21 03:44 |
|---|---|
| Airport | Fulton County Airport Brown Field (KFTY) |
| Time | Latitude | Longitude | Altitude | Speed | Heading |
|---|---|---|---|---|---|
| 2026-04-21 01:23 | 30.04081 | -90.02182 | 36 ft | 0 kts | 229° |
| 2026-04-21 01:40 | 30.04078 | -90.02184 | 10 ft | 3 kts | 191° |
| 2026-04-21 01:40 | 30.04041 | -90.02162 | 10 ft | 9 kts | 207° |
| 2026-04-21 01:40 | 30.03991 | -90.02214 | 10 ft | 10 kts | 223° |
| 2026-04-21 01:40 | 30.03972 | -90.02307 | 10 ft | 15 kts | 270° |
| 2026-04-21 01:41 | 30.04036 | -90.02414 | 10 ft | 18 kts | 314° |
| 2026-04-21 01:41 | 30.04128 | -90.02523 | 10 ft | 20 kts | 314° |
| 2026-04-21 01:41 | 30.04224 | -90.02637 | 10 ft | 19 kts | 314° |
| 2026-04-21 01:41 | 30.04332 | -90.02695 | 10 ft | 18 kts | 360° |
| 2026-04-21 01:42 | 30.04450 | -90.02696 | 10 ft | 16 kts | 359° |
| 2026-04-21 01:42 | 30.04561 | -90.02698 | 10 ft | 16 kts | 359° |
| 2026-04-21 01:42 | 30.04667 | -90.02700 | 10 ft | 15 kts | 359° |
| 2026-04-21 01:42 | 30.04771 | -90.02701 | 10 ft | 16 kts | 359° |
| 2026-04-21 01:43 | 30.04888 | -90.02703 | 10 ft | 18 kts | 0° |
| 2026-04-21 01:43 | 30.04999 | -90.02708 | 10 ft | 7 kts | 330° |
| 2026-04-21 01:43 | 30.05006 | -90.02716 | 10 ft | 0 kts | 296° |
| 2026-04-21 01:47 | 30.05006 | -90.02717 | 10 ft | 3 kts | 295° |
| 2026-04-21 01:47 | 30.04991 | -90.02767 | 10 ft | 6 kts | 179° |
| 2026-04-21 01:47 | 30.04987 | -90.02767 | 10 ft | 0 kts | 176° |
| 2026-04-21 01:48 | 30.04910 | -90.02766 | 11 ft | 49 kts | 179° |
| 2026-04-21 01:48 | 30.04330 | -90.02766 | 36 ft | 105 kts | 178° |
| 2026-04-21 01:48 | 30.03544 | -90.02902 | 236 ft | 127 kts | 182° |
| 2026-04-21 01:48 | 30.02617 | -90.03062 | 576 ft | 144 kts | 181° |
| 2026-04-21 01:49 | 30.01636 | -90.03034 | 1052 ft | 134 kts | 154° |
| 2026-04-21 01:49 | 30.01016 | -90.02390 | 1586 ft | 122 kts | 107° |
| 2026-04-21 01:49 | 30.01059 | -90.01405 | 1888 ft | 129 kts | 66° |
| 2026-04-21 01:49 | 30.01674 | -90.00683 | 2317 ft | 129 kts | 35° |
| 2026-04-21 01:50 | 30.02506 | -90.00265 | 2687 ft | 131 kts | 31° |
| 2026-04-21 01:50 | 30.03370 | -89.99862 | 2958 ft | 137 kts | 28° |
| 2026-04-21 01:50 | 30.04284 | -89.99472 | 3298 ft | 143 kts | 28° |
| 2026-04-21 01:50 | 30.05222 | -89.99052 | 3652 ft | 147 kts | 27° |
| 2026-04-21 01:51 | 30.06166 | -89.98620 | 4017 ft | 146 kts | 27° |
| 2026-04-21 01:51 | 30.07100 | -89.98161 | 4362 ft | 146 kts | 27° |
| 2026-04-21 01:51 | 30.08024 | -89.97678 | 4703 ft | 143 kts | 28° |
| 2026-04-21 01:51 | 30.08920 | -89.97202 | 5032 ft | 143 kts | 28° |
| 2026-04-21 01:52 | 30.09819 | -89.96702 | 5337 ft | 143 kts | 28° |
| 2026-04-21 01:52 | 30.11371 | -89.95291 | 5965 ft | 144 kts | 51° |
| 2026-04-21 01:52 | 30.11975 | -89.94371 | 6264 ft | 144 kts | 52° |
| 2026-04-21 01:53 | 30.12577 | -89.93427 | 6542 ft | 147 kts | 52° |
| 2026-04-21 01:53 | 30.13183 | -89.92467 | 6822 ft | 147 kts | 52° |
| 2026-04-21 01:53 | 30.13781 | -89.91503 | 7078 ft | 147 kts | 52° |
| 2026-04-21 01:53 | 30.14353 | -89.90532 | 7332 ft | 148 kts | 56° |
| 2026-04-21 01:54 | 30.14879 | -89.89510 | 7584 ft | 150 kts | 57° |
| 2026-04-21 01:54 | 30.15409 | -89.88474 | 7823 ft | 149 kts | 57° |
| 2026-04-21 01:54 | 30.15935 | -89.87438 | 8055 ft | 150 kts | 57° |
| 2026-04-21 01:54 | 30.16462 | -89.86387 | 8305 ft | 151 kts | 57° |
| 2026-04-21 01:55 | 30.17037 | -89.85349 | 8567 ft | 155 kts | 52° |
| 2026-04-21 01:55 | 30.17670 | -89.84364 | 8837 ft | 152 kts | 49° |
| 2026-04-21 01:55 | 30.18325 | -89.83417 | 9093 ft | 151 kts | 48° |
| 2026-04-21 01:55 | 30.19003 | -89.82477 | 9339 ft | 152 kts | 47° |
| 2026-04-21 01:56 | 30.19692 | -89.81534 | 9584 ft | 153 kts | 47° |
| 2026-04-21 01:56 | 30.20368 | -89.80598 | 9824 ft | 152 kts | 47° |
| 2026-04-21 01:56 | 30.21052 | -89.79658 | 10064 ft | 153 kts | 47° |
| 2026-04-21 01:56 | 30.21753 | -89.78706 | 10297 ft | 156 kts | 47° |
| 2026-04-21 01:57 | 30.22444 | -89.77746 | 10520 ft | 155 kts | 47° |
| 2026-04-21 01:57 | 30.23125 | -89.76789 | 10732 ft | 155 kts | 47° |
| 2026-04-21 01:57 | 30.23818 | -89.75831 | 10955 ft | 157 kts | 46° |
| 2026-04-21 01:57 | 30.24515 | -89.74867 | 11174 ft | 156 kts | 46° |
| 2026-04-21 01:58 | 30.25205 | -89.73899 | 11355 ft | 157 kts | 45° |
| 2026-04-21 01:58 | 30.25912 | -89.72928 | 11538 ft | 159 kts | 45° |
| 2026-04-21 01:58 | 30.26665 | -89.71909 | 11510 ft | 174 kts | 46° |
| 2026-04-21 01:58 | 30.27466 | -89.70798 | 11446 ft | 186 kts | 46° |
| 2026-04-21 01:59 | 30.28318 | -89.69617 | 11361 ft | 196 kts | 47° |
| 2026-04-21 01:59 | 30.29146 | -89.68314 | 11267 ft | 204 kts | 52° |
| 2026-04-21 01:59 | 30.29946 | -89.66955 | 11188 ft | 208 kts | 52° |
| 2026-04-21 01:59 | 30.30771 | -89.65566 | 11130 ft | 211 kts | 51° |
| 2026-04-21 02:00 | 30.31626 | -89.64165 | 11041 ft | 214 kts | 52° |
| 2026-04-21 02:00 | 30.32460 | -89.62745 | 11034 ft | 211 kts | 52° |
| 2026-04-21 02:00 | 30.33291 | -89.61350 | 11043 ft | 210 kts | 52° |
| 2026-04-21 02:00 | 30.34122 | -89.59965 | 11045 ft | 209 kts | 52° |
| 2026-04-21 02:01 | 30.34935 | -89.58585 | 11048 ft | 207 kts | 52° |
| 2026-04-21 02:01 | 30.35768 | -89.57219 | 11046 ft | 207 kts | 52° |
| 2026-04-21 02:01 | 30.36581 | -89.55860 | 11048 ft | 204 kts | 52° |
| 2026-04-21 02:01 | 30.37373 | -89.54510 | 11052 ft | 201 kts | 52° |
| 2026-04-21 02:02 | 30.38168 | -89.53180 | 11049 ft | 202 kts | 52° |
| 2026-04-21 02:02 | 30.38961 | -89.51849 | 11051 ft | 199 kts | 52° |
| 2026-04-21 02:02 | 30.39742 | -89.50524 | 11049 ft | 199 kts | 52° |
| 2026-04-21 02:02 | 30.40523 | -89.49208 | 11053 ft | 198 kts | 52° |
| 2026-04-21 02:03 | 30.41303 | -89.47891 | 11054 ft | 198 kts | 52° |
| 2026-04-21 02:03 | 30.42080 | -89.46578 | 11049 ft | 198 kts | 52° |
| 2026-04-21 02:03 | 30.42867 | -89.45272 | 11052 ft | 198 kts | 51° |
| 2026-04-21 02:03 | 30.43649 | -89.43965 | 11055 ft | 197 kts | 52° |
| 2026-04-21 02:04 | 30.44424 | -89.42656 | 11050 ft | 197 kts | 52° |
| 2026-04-21 02:04 | 30.45207 | -89.41347 | 11053 ft | 198 kts | 52° |
| 2026-04-21 02:04 | 30.45985 | -89.40039 | 11049 ft | 197 kts | 51° |
| 2026-04-21 02:04 | 30.46765 | -89.38731 | 11052 ft | 197 kts | 51° |
| 2026-04-21 02:05 | 30.47549 | -89.37424 | 11045 ft | 197 kts | 52° |
| 2026-04-21 02:05 | 30.48326 | -89.36117 | 11048 ft | 197 kts | 52° |
| 2026-04-21 02:05 | 30.49104 | -89.34803 | 11044 ft | 197 kts | 52° |
| 2026-04-21 02:05 | 30.49879 | -89.33505 | 11045 ft | 198 kts | 52° |
| 2026-04-21 02:06 | 30.50658 | -89.32192 | 11044 ft | 197 kts | 51° |
| 2026-04-21 02:06 | 30.51437 | -89.30880 | 11042 ft | 197 kts | 52° |
| 2026-04-21 02:06 | 30.52217 | -89.29569 | 11041 ft | 197 kts | 52° |
| 2026-04-21 02:06 | 30.52987 | -89.28257 | 11043 ft | 196 kts | 52° |
| 2026-04-21 02:07 | 30.53378 | -89.27591 | 11037 ft | 196 kts | 52° |
| 2026-04-21 02:07 | 30.54055 | -89.26450 | 11040 ft | 197 kts | 52° |
| 2026-04-21 02:07 | 30.54838 | -89.25136 | 11039 ft | 198 kts | 52° |
| 2026-04-21 02:07 | 30.55615 | -89.23818 | 11038 ft | 198 kts | 52° |
| 2026-04-21 02:08 | 30.56390 | -89.22503 | 11039 ft | 197 kts | 51° |
| 2026-04-21 02:08 | 30.57169 | -89.21185 | 11044 ft | 197 kts | 51° |
| 2026-04-21 02:08 | 30.57939 | -89.19885 | 11040 ft | 198 kts | 51° |
| 2026-04-21 02:08 | 30.58722 | -89.18571 | 11037 ft | 198 kts | 51° |
| 2026-04-21 02:09 | 30.59503 | -89.17253 | 11040 ft | 198 kts | 51° |
| 2026-04-21 02:09 | 30.60281 | -89.15937 | 11039 ft | 197 kts | 51° |
| 2026-04-21 02:09 | 30.61060 | -89.14622 | 11039 ft | 198 kts | 51° |
| 2026-04-21 02:09 | 30.61837 | -89.13309 | 11036 ft | 197 kts | 51° |
| 2026-04-21 02:10 | 30.62609 | -89.12000 | 11038 ft | 197 kts | 51° |
| 2026-04-21 02:10 | 30.63382 | -89.10691 | 11040 ft | 197 kts | 51° |
| 2026-04-21 02:10 | 30.64156 | -89.09381 | 11039 ft | 197 kts | 51° |
| 2026-04-21 02:10 | 30.64929 | -89.08071 | 11038 ft | 197 kts | 51° |
| 2026-04-21 02:11 | 30.65701 | -89.06762 | 11040 ft | 197 kts | 51° |
| 2026-04-21 02:11 | 30.66472 | -89.05454 | 11036 ft | 197 kts | 51° |
| 2026-04-21 02:11 | 30.67246 | -89.04140 | 11028 ft | 197 kts | 51° |
| 2026-04-21 02:11 | 30.68019 | -89.02832 | 11032 ft | 196 kts | 51° |
| 2026-04-21 02:12 | 30.68792 | -89.01523 | 11032 ft | 196 kts | 51° |
| 2026-04-21 02:12 | 30.69566 | -89.00213 | 11027 ft | 196 kts | 51° |
| 2026-04-21 02:12 | 30.70337 | -88.98905 | 11031 ft | 196 kts | 51° |
| 2026-04-21 02:12 | 30.71104 | -88.97600 | 11032 ft | 196 kts | 51° |
| 2026-04-21 02:13 | 30.71863 | -88.96308 | 11034 ft | 196 kts | 51° |
| 2026-04-21 02:13 | 30.72630 | -88.95002 | 11032 ft | 196 kts | 51° |
| 2026-04-21 02:13 | 30.73400 | -88.93691 | 11034 ft | 196 kts | 51° |
| 2026-04-21 02:13 | 30.74172 | -88.92381 | 11039 ft | 196 kts | 51° |
| 2026-04-21 02:14 | 30.74943 | -88.91070 | 11041 ft | 197 kts | 51° |
| 2026-04-21 02:14 | 30.75716 | -88.89754 | 11047 ft | 197 kts | 52° |
| 2026-04-21 02:14 | 30.76488 | -88.88436 | 11040 ft | 197 kts | 52° |
| 2026-04-21 02:14 | 30.77259 | -88.87117 | 11043 ft | 197 kts | 52° |
| 2026-04-21 02:15 | 30.78021 | -88.85815 | 11044 ft | 196 kts | 51° |
| 2026-04-21 02:15 | 30.78790 | -88.84500 | 11040 ft | 197 kts | 51° |
| 2026-04-21 02:15 | 30.79557 | -88.83187 | 11041 ft | 196 kts | 51° |
| 2026-04-21 02:15 | 30.80327 | -88.81875 | 11041 ft | 196 kts | 51° |
| 2026-04-21 02:16 | 30.81096 | -88.80565 | 11041 ft | 196 kts | 51° |
| 2026-04-21 02:16 | 30.81868 | -88.79251 | 11042 ft | 196 kts | 51° |
| 2026-04-21 02:16 | 30.82639 | -88.77939 | 11046 ft | 197 kts | 51° |
| 2026-04-21 02:16 | 30.83415 | -88.76615 | 11041 ft | 198 kts | 51° |
| 2026-04-21 02:17 | 30.84191 | -88.75291 | 11038 ft | 197 kts | 51° |
| 2026-04-21 02:17 | 30.84961 | -88.73973 | 11041 ft | 197 kts | 51° |
| 2026-04-21 02:17 | 30.85731 | -88.72653 | 11039 ft | 197 kts | 51° |
| 2026-04-21 02:17 | 30.86491 | -88.71353 | 11042 ft | 197 kts | 51° |
| 2026-04-21 02:18 | 30.87262 | -88.70037 | 11044 ft | 197 kts | 51° |
| 2026-04-21 02:18 | 30.88032 | -88.68718 | 11039 ft | 197 kts | 51° |
| 2026-04-21 02:18 | 30.88803 | -88.67395 | 11042 ft | 198 kts | 51° |
| 2026-04-21 02:18 | 30.89577 | -88.66073 | 11041 ft | 197 kts | 51° |
| 2026-04-21 02:19 | 30.90350 | -88.64752 | 11044 ft | 197 kts | 52° |
| 2026-04-21 02:19 | 30.91121 | -88.63428 | 11040 ft | 198 kts | 51° |
| 2026-04-21 02:19 | 30.91894 | -88.62102 | 11038 ft | 198 kts | 51° |
| 2026-04-21 02:19 | 30.92666 | -88.60778 | 11037 ft | 197 kts | 51° |
| 2026-04-21 02:20 | 30.93439 | -88.59447 | 11038 ft | 198 kts | 51° |
| 2026-04-21 02:20 | 30.93949 | -88.58571 | 11038 ft | 197 kts | 51° |
| 2026-04-21 02:20 | 30.94721 | -88.57249 | 11043 ft | 197 kts | 51° |
| 2026-04-21 02:20 | 30.95492 | -88.55924 | 11040 ft | 198 kts | 52° |
| 2026-04-21 02:21 | 30.96258 | -88.54591 | 11044 ft | 199 kts | 51° |
| 2026-04-21 02:21 | 30.97034 | -88.53258 | 11038 ft | 199 kts | 51° |
| 2026-04-21 02:21 | 30.97813 | -88.51923 | 11040 ft | 199 kts | 51° |
| 2026-04-21 02:21 | 30.98590 | -88.50589 | 11034 ft | 199 kts | 51° |
| 2026-04-21 02:22 | 30.99366 | -88.49257 | 11034 ft | 199 kts | 51° |
| 2026-04-21 02:22 | 31.00140 | -88.47926 | 11034 ft | 198 kts | 51° |
| 2026-04-21 02:22 | 31.00917 | -88.46594 | 11036 ft | 199 kts | 51° |
| 2026-04-21 02:22 | 31.01693 | -88.45251 | 11035 ft | 199 kts | 51° |
| 2026-04-21 02:23 | 31.02457 | -88.43930 | 11033 ft | 199 kts | 51° |
| 2026-04-21 02:23 | 31.03236 | -88.42596 | 11035 ft | 198 kts | 51° |
| 2026-04-21 02:23 | 31.04014 | -88.41258 | 11034 ft | 199 kts | 51° |
| 2026-04-21 02:23 | 31.04787 | -88.39926 | 11039 ft | 198 kts | 51° |
| 2026-04-21 02:24 | 31.05565 | -88.38589 | 11034 ft | 199 kts | 51° |
| 2026-04-21 02:24 | 31.06341 | -88.37252 | 11039 ft | 199 kts | 51° |
| 2026-04-21 02:24 | 31.07116 | -88.35914 | 11038 ft | 199 kts | 51° |
| 2026-04-21 02:24 | 31.07888 | -88.34578 | 11036 ft | 198 kts | 51° |
| 2026-04-21 02:25 | 31.08650 | -88.33262 | 11041 ft | 198 kts | 51° |
| 2026-04-21 02:25 | 31.09421 | -88.31926 | 11038 ft | 198 kts | 51° |
| 2026-04-21 02:25 | 31.10195 | -88.30595 | 11041 ft | 198 kts | 51° |
| 2026-04-21 02:25 | 31.10966 | -88.29263 | 11039 ft | 198 kts | 51° |
| 2026-04-21 02:26 | 31.11737 | -88.27929 | 11040 ft | 198 kts | 51° |
| 2026-04-21 02:26 | 31.12511 | -88.26591 | 11034 ft | 199 kts | 51° |
| 2026-04-21 02:26 | 31.13287 | -88.25252 | 11039 ft | 199 kts | 51° |
| 2026-04-21 02:26 | 31.14051 | -88.23923 | 11035 ft | 200 kts | 51° |
| 2026-04-21 02:27 | 31.14825 | -88.22578 | 11036 ft | 199 kts | 51° |
| 2026-04-21 02:27 | 31.15604 | -88.21229 | 11042 ft | 202 kts | 51° |
| 2026-04-21 02:27 | 31.16391 | -88.19873 | 11037 ft | 201 kts | 51° |
| 2026-04-21 02:27 | 31.17173 | -88.18521 | 11047 ft | 202 kts | 51° |
| 2026-04-21 02:28 | 31.17961 | -88.17154 | 11035 ft | 204 kts | 51° |
| 2026-04-21 02:28 | 31.18639 | -88.15979 | 11036 ft | 203 kts | 51° |
| 2026-04-21 02:28 | 31.19376 | -88.14699 | 11037 ft | 203 kts | 51° |
| 2026-04-21 02:28 | 31.20156 | -88.13343 | 11036 ft | 203 kts | 51° |
| 2026-04-21 02:29 | 31.20944 | -88.11972 | 11038 ft | 204 kts | 51° |
| 2026-04-21 02:29 | 31.21737 | -88.10593 | 11037 ft | 204 kts | 51° |
| 2026-04-21 02:29 | 31.22531 | -88.09215 | 11035 ft | 204 kts | 51° |
| 2026-04-21 02:29 | 31.23322 | -88.07835 | 11044 ft | 204 kts | 51° |
| 2026-04-21 02:30 | 31.24119 | -88.06446 | 11031 ft | 205 kts | 50° |
| 2026-04-21 02:30 | 31.24913 | -88.05064 | 11035 ft | 204 kts | 51° |
| 2026-04-21 02:30 | 31.25704 | -88.03686 | 11035 ft | 204 kts | 50° |
| 2026-04-21 02:30 | 31.26495 | -88.02308 | 11035 ft | 204 kts | 50° |
| 2026-04-21 02:31 | 31.27285 | -88.00937 | 11036 ft | 203 kts | 50° |
| 2026-04-21 02:31 | 31.28065 | -87.99583 | 11034 ft | 204 kts | 50° |
| 2026-04-21 02:31 | 31.28859 | -87.98205 | 11037 ft | 204 kts | 51° |
| 2026-04-21 02:31 | 31.29650 | -87.96828 | 11039 ft | 204 kts | 51° |
| 2026-04-21 02:32 | 31.30438 | -87.95453 | 11039 ft | 204 kts | 51° |
| 2026-04-21 02:32 | 31.31227 | -87.94073 | 11038 ft | 204 kts | 51° |
| 2026-04-21 02:32 | 31.32015 | -87.92691 | 11037 ft | 204 kts | 50° |
| 2026-04-21 02:32 | 31.32805 | -87.91315 | 11038 ft | 204 kts | 50° |
| 2026-04-21 02:33 | 31.33595 | -87.89935 | 11035 ft | 205 kts | 51° |
| 2026-04-21 02:33 | 31.34385 | -87.88551 | 11038 ft | 204 kts | 51° |
| 2026-04-21 02:33 | 31.35174 | -87.87173 | 11038 ft | 203 kts | 51° |
| 2026-04-21 02:33 | 31.35962 | -87.85796 | 11033 ft | 203 kts | 51° |
| 2026-04-21 02:34 | 31.36748 | -87.84417 | 11034 ft | 203 kts | 50° |
| 2026-04-21 02:34 | 31.37536 | -87.83043 | 11049 ft | 204 kts | 50° |
| 2026-04-21 02:34 | 31.38319 | -87.81681 | 11029 ft | 204 kts | 50° |
| 2026-04-21 02:34 | 31.39109 | -87.80299 | 11033 ft | 203 kts | 51° |
| 2026-04-21 02:35 | 31.39897 | -87.78918 | 11034 ft | 204 kts | 51° |
| 2026-04-21 02:35 | 31.40683 | -87.77537 | 11035 ft | 204 kts | 51° |
| 2026-04-21 02:35 | 31.41470 | -87.76158 | 11039 ft | 204 kts | 51° |
| 2026-04-21 02:35 | 31.42257 | -87.74778 | 11035 ft | 204 kts | 51° |
| 2026-04-21 02:36 | 31.43042 | -87.73396 | 11036 ft | 203 kts | 51° |
| 2026-04-21 02:36 | 31.43827 | -87.72019 | 11047 ft | 203 kts | 51° |
| 2026-04-21 02:36 | 31.44616 | -87.70640 | 11035 ft | 204 kts | 51° |
| 2026-04-21 02:36 | 31.45401 | -87.69248 | 11035 ft | 204 kts | 50° |
| 2026-04-21 02:37 | 31.46190 | -87.67860 | 11034 ft | 204 kts | 50° |
| 2026-04-21 02:37 | 31.46969 | -87.66501 | 11037 ft | 204 kts | 50° |
| 2026-04-21 02:37 | 31.47758 | -87.65120 | 11037 ft | 204 kts | 50° |
| 2026-04-21 02:37 | 31.48542 | -87.63737 | 11038 ft | 204 kts | 50° |
| 2026-04-21 02:38 | 31.49329 | -87.62354 | 11036 ft | 204 kts | 50° |
| 2026-04-21 02:38 | 31.50119 | -87.60967 | 11044 ft | 204 kts | 50° |
| 2026-04-21 02:38 | 31.50898 | -87.59582 | 11040 ft | 203 kts | 50° |
| 2026-04-21 02:38 | 31.51681 | -87.58199 | 11037 ft | 203 kts | 50° |
| 2026-04-21 02:39 | 31.52468 | -87.56813 | 11036 ft | 204 kts | 50° |
| 2026-04-21 02:39 | 31.53252 | -87.55433 | 11038 ft | 203 kts | 50° |
| 2026-04-21 02:39 | 31.54040 | -87.54052 | 11036 ft | 203 kts | 50° |
| 2026-04-21 02:39 | 31.54816 | -87.52691 | 11035 ft | 204 kts | 50° |
| 2026-04-21 02:40 | 31.55600 | -87.51308 | 11034 ft | 204 kts | 50° |
| 2026-04-21 02:40 | 31.56385 | -87.49926 | 11035 ft | 204 kts | 50° |
| 2026-04-21 02:40 | 31.57169 | -87.48544 | 11036 ft | 203 kts | 50° |
| 2026-04-21 02:40 | 31.57951 | -87.47162 | 11037 ft | 203 kts | 50° |
| 2026-04-21 02:41 | 31.58733 | -87.45782 | 11036 ft | 203 kts | 50° |
| 2026-04-21 02:41 | 31.59514 | -87.44402 | 11037 ft | 203 kts | 50° |
| 2026-04-21 02:41 | 31.60297 | -87.43014 | 11037 ft | 203 kts | 50° |
| 2026-04-21 02:41 | 31.61079 | -87.41629 | 11040 ft | 203 kts | 50° |
| 2026-04-21 02:42 | 31.61858 | -87.40247 | 11039 ft | 203 kts | 50° |
| 2026-04-21 02:42 | 31.62637 | -87.38869 | 11040 ft | 203 kts | 50° |
| 2026-04-21 02:42 | 31.63419 | -87.37492 | 11042 ft | 202 kts | 50° |
| 2026-04-21 02:42 | 31.64185 | -87.36132 | 11042 ft | 202 kts | 50° |
| 2026-04-21 02:43 | 31.64962 | -87.34757 | 11041 ft | 202 kts | 50° |
| 2026-04-21 02:43 | 31.65738 | -87.33379 | 11042 ft | 202 kts | 50° |
| 2026-04-21 02:43 | 31.66508 | -87.32001 | 11048 ft | 202 kts | 50° |
| 2026-04-21 02:43 | 31.67284 | -87.30619 | 11042 ft | 203 kts | 49° |
| 2026-04-21 02:44 | 31.68066 | -87.29239 | 11043 ft | 203 kts | 49° |
| 2026-04-21 02:44 | 31.68847 | -87.27856 | 11039 ft | 203 kts | 49° |
| 2026-04-21 02:44 | 31.69627 | -87.26473 | 11038 ft | 203 kts | 49° |
| 2026-04-21 02:44 | 31.70409 | -87.25090 | 11039 ft | 203 kts | 49° |
| 2026-04-21 02:45 | 31.71189 | -87.23707 | 11039 ft | 203 kts | 49° |
| 2026-04-21 02:45 | 31.71967 | -87.22324 | 11030 ft | 203 kts | 49° |
| 2026-04-21 02:45 | 31.72746 | -87.20940 | 11031 ft | 203 kts | 50° |
| 2026-04-21 02:45 | 31.73523 | -87.19556 | 11033 ft | 203 kts | 50° |
| 2026-04-21 02:46 | 31.74304 | -87.18169 | 11033 ft | 203 kts | 50° |
| 2026-04-21 02:46 | 31.75081 | -87.16785 | 11035 ft | 204 kts | 49° |
| 2026-04-21 02:46 | 31.75863 | -87.15397 | 11033 ft | 203 kts | 50° |
| 2026-04-21 02:46 | 31.76644 | -87.14010 | 11033 ft | 204 kts | 50° |
| 2026-04-21 02:47 | 31.77422 | -87.12620 | 11033 ft | 203 kts | 50° |
| 2026-04-21 02:47 | 31.78200 | -87.11232 | 11032 ft | 203 kts | 50° |
| 2026-04-21 02:47 | 31.78977 | -87.09844 | 10993 ft | 203 kts | 50° |
| 2026-04-21 02:47 | 31.79756 | -87.08454 | 10993 ft | 203 kts | 50° |
| 2026-04-21 02:48 | 31.80524 | -87.07081 | 10991 ft | 204 kts | 50° |
| 2026-04-21 02:48 | 31.81303 | -87.05689 | 10992 ft | 204 kts | 50° |
| 2026-04-21 02:48 | 31.82081 | -87.04301 | 10984 ft | 203 kts | 50° |
| 2026-04-21 02:48 | 31.82859 | -87.02913 | 10985 ft | 203 kts | 50° |
| 2026-04-21 02:49 | 31.83637 | -87.01525 | 10987 ft | 203 kts | 50° |
| 2026-04-21 02:49 | 31.84412 | -87.00139 | 10992 ft | 203 kts | 50° |
| 2026-04-21 02:49 | 31.85190 | -86.98748 | 10992 ft | 203 kts | 50° |
| 2026-04-21 02:49 | 31.85965 | -86.97362 | 10994 ft | 203 kts | 50° |
| 2026-04-21 02:50 | 31.86741 | -86.95970 | 10996 ft | 203 kts | 50° |
| 2026-04-21 02:50 | 31.87518 | -86.94579 | 10969 ft | 203 kts | 50° |
| 2026-04-21 02:50 | 31.88291 | -86.93185 | 10970 ft | 204 kts | 50° |
| 2026-04-21 02:50 | 31.89068 | -86.91789 | 10972 ft | 203 kts | 49° |
| 2026-04-21 02:51 | 31.89845 | -86.90399 | 10976 ft | 203 kts | 49° |
| 2026-04-21 02:51 | 31.90620 | -86.89008 | 10979 ft | 203 kts | 49° |
| 2026-04-21 02:51 | 31.91395 | -86.87619 | 10980 ft | 203 kts | 49° |
| 2026-04-21 02:51 | 31.92160 | -86.86248 | 10985 ft | 203 kts | 49° |
| 2026-04-21 02:52 | 31.92935 | -86.84857 | 10985 ft | 203 kts | 49° |
| 2026-04-21 02:52 | 31.93706 | -86.83472 | 10988 ft | 202 kts | 49° |
| 2026-04-21 02:52 | 31.94484 | -86.82084 | 10990 ft | 203 kts | 49° |
| 2026-04-21 02:52 | 31.95263 | -86.80686 | 10994 ft | 203 kts | 49° |
| 2026-04-21 02:53 | 31.96038 | -86.79293 | 10986 ft | 203 kts | 49° |
| 2026-04-21 02:53 | 31.96815 | -86.77900 | 10989 ft | 203 kts | 49° |
| 2026-04-21 02:53 | 31.97592 | -86.76509 | 10988 ft | 203 kts | 49° |
| 2026-04-21 02:53 | 31.98367 | -86.75117 | 10991 ft | 203 kts | 49° |
| 2026-04-21 02:54 | 31.99138 | -86.73725 | 10993 ft | 203 kts | 50° |
| 2026-04-21 02:54 | 31.99909 | -86.72332 | 10990 ft | 203 kts | 49° |
| 2026-04-21 02:54 | 32.00683 | -86.70939 | 10990 ft | 203 kts | 50° |
| 2026-04-21 02:54 | 32.01446 | -86.69564 | 10990 ft | 203 kts | 50° |
| 2026-04-21 02:55 | 32.02221 | -86.68163 | 10988 ft | 204 kts | 50° |
| 2026-04-21 02:55 | 32.02995 | -86.66765 | 10987 ft | 203 kts | 49° |
| 2026-04-21 02:55 | 32.03767 | -86.65374 | 10997 ft | 203 kts | 49° |
| 2026-04-21 02:55 | 32.04539 | -86.63979 | 11003 ft | 203 kts | 49° |
| 2026-04-21 02:56 | 32.05313 | -86.62580 | 11001 ft | 203 kts | 49° |
| 2026-04-21 02:56 | 32.06859 | -86.59792 | 11000 ft | 203 kts | 50° |
| 2026-04-21 02:56 | 32.07630 | -86.58394 | 10998 ft | 203 kts | 49° |
| 2026-04-21 02:57 | 32.08402 | -86.56999 | 10997 ft | 203 kts | 50° |
| 2026-04-21 02:57 | 32.09165 | -86.55618 | 10995 ft | 204 kts | 49° |
| 2026-04-21 02:57 | 32.09937 | -86.54214 | 11003 ft | 204 kts | 49° |
| 2026-04-21 02:57 | 32.10709 | -86.52813 | 11006 ft | 204 kts | 49° |
| 2026-04-21 02:58 | 32.11481 | -86.51417 | 11013 ft | 203 kts | 49° |
| 2026-04-21 02:58 | 32.12254 | -86.50020 | 11018 ft | 203 kts | 49° |
| 2026-04-21 02:58 | 32.13026 | -86.48622 | 11035 ft | 203 kts | 49° |
| 2026-04-21 02:58 | 32.13797 | -86.47224 | 11043 ft | 203 kts | 49° |
| 2026-04-21 02:59 | 32.14567 | -86.45827 | 11045 ft | 203 kts | 49° |
| 2026-04-21 02:59 | 32.15340 | -86.44430 | 11046 ft | 203 kts | 49° |
| 2026-04-21 02:59 | 32.16114 | -86.43034 | 11046 ft | 203 kts | 49° |
| 2026-04-21 02:59 | 32.16884 | -86.41632 | 11049 ft | 203 kts | 49° |
| 2026-04-21 03:00 | 32.17653 | -86.40232 | 11052 ft | 203 kts | 49° |
| 2026-04-21 03:00 | 32.18418 | -86.38849 | 11047 ft | 204 kts | 49° |
| 2026-04-21 03:00 | 32.19189 | -86.37450 | 11051 ft | 203 kts | 49° |
| 2026-04-21 03:00 | 32.19957 | -86.36047 | 11050 ft | 204 kts | 49° |
| 2026-04-21 03:01 | 32.20729 | -86.34645 | 11051 ft | 203 kts | 49° |
| 2026-04-21 03:01 | 32.21499 | -86.33243 | 11053 ft | 203 kts | 49° |
| 2026-04-21 03:01 | 32.22321 | -86.31882 | 11056 ft | 203 kts | 42° |
| 2026-04-21 03:01 | 32.23296 | -86.30698 | 11048 ft | 200 kts | 37° |
| 2026-04-21 03:02 | 32.24268 | -86.29533 | 11050 ft | 199 kts | 38° |
| 2026-04-21 03:02 | 32.25232 | -86.28356 | 11050 ft | 198 kts | 39° |
| 2026-04-21 03:02 | 32.26189 | -86.27183 | 11052 ft | 198 kts | 38° |
| 2026-04-21 03:02 | 32.27139 | -86.26029 | 11051 ft | 198 kts | 38° |
| 2026-04-21 03:03 | 32.28099 | -86.24866 | 11029 ft | 198 kts | 38° |
| 2026-04-21 03:03 | 32.29059 | -86.23703 | 11028 ft | 197 kts | 38° |
| 2026-04-21 03:03 | 32.30021 | -86.22543 | 11030 ft | 198 kts | 38° |
| 2026-04-21 03:03 | 32.30984 | -86.21384 | 11031 ft | 198 kts | 38° |
| 2026-04-21 03:04 | 32.31954 | -86.20218 | 11029 ft | 198 kts | 38° |
| 2026-04-21 03:04 | 32.32920 | -86.19051 | 11028 ft | 198 kts | 38° |
| 2026-04-21 03:04 | 32.33880 | -86.17886 | 11037 ft | 198 kts | 38° |
| 2026-04-21 03:04 | 32.34847 | -86.16711 | 11031 ft | 199 kts | 38° |
| 2026-04-21 03:05 | 32.35815 | -86.15539 | 11032 ft | 199 kts | 38° |
| 2026-04-21 03:05 | 32.36787 | -86.14365 | 11029 ft | 199 kts | 38° |
| 2026-04-21 03:05 | 32.37755 | -86.13194 | 11032 ft | 199 kts | 38° |
| 2026-04-21 03:05 | 32.38727 | -86.12021 | 11027 ft | 199 kts | 38° |
| 2026-04-21 03:06 | 32.39684 | -86.10867 | 11032 ft | 199 kts | 38° |
| 2026-04-21 03:06 | 32.40652 | -86.09698 | 11030 ft | 199 kts | 38° |
| 2026-04-21 03:06 | 32.41622 | -86.08527 | 11035 ft | 199 kts | 38° |
| 2026-04-21 03:06 | 32.42589 | -86.07355 | 11029 ft | 199 kts | 38° |
| 2026-04-21 03:07 | 32.43556 | -86.06181 | 11031 ft | 199 kts | 38° |
| 2026-04-21 03:07 | 32.44523 | -86.05011 | 11034 ft | 199 kts | 38° |
| 2026-04-21 03:07 | 32.45489 | -86.03836 | 11031 ft | 199 kts | 38° |
| 2026-04-21 03:07 | 32.46453 | -86.02662 | 11032 ft | 199 kts | 38° |
| 2026-04-21 03:08 | 32.47417 | -86.01492 | 11024 ft | 199 kts | 38° |
| 2026-04-21 03:08 | 32.48382 | -86.00324 | 11029 ft | 198 kts | 38° |
| 2026-04-21 03:08 | 32.49350 | -85.99156 | 11022 ft | 199 kts | 38° |
| 2026-04-21 03:08 | 32.50314 | -85.97986 | 11029 ft | 198 kts | 38° |
| 2026-04-21 03:09 | 32.50949 | -85.97212 | 11028 ft | 198 kts | 38° |
| 2026-04-21 03:09 | 32.51913 | -85.96040 | 11028 ft | 199 kts | 38° |
| 2026-04-21 03:09 | 32.52880 | -85.94869 | 11023 ft | 199 kts | 38° |
| 2026-04-21 03:09 | 32.53845 | -85.93697 | 11029 ft | 198 kts | 38° |
| 2026-04-21 03:10 | 32.54809 | -85.92521 | 11024 ft | 199 kts | 38° |
| 2026-04-21 03:10 | 32.55776 | -85.91347 | 11031 ft | 199 kts | 38° |
| 2026-04-21 03:10 | 32.56741 | -85.90175 | 11029 ft | 199 kts | 38° |
| 2026-04-21 03:10 | 32.57705 | -85.89002 | 11030 ft | 199 kts | 38° |
| 2026-04-21 03:11 | 32.58673 | -85.87826 | 11031 ft | 199 kts | 38° |
| 2026-04-21 03:11 | 32.59638 | -85.86649 | 11034 ft | 199 kts | 38° |
| 2026-04-21 03:11 | 32.60601 | -85.85472 | 11032 ft | 199 kts | 38° |
| 2026-04-21 03:11 | 32.61566 | -85.84291 | 11029 ft | 200 kts | 38° |
| 2026-04-21 03:12 | 32.62534 | -85.83112 | 11031 ft | 199 kts | 38° |
| 2026-04-21 03:12 | 32.63499 | -85.81936 | 11032 ft | 199 kts | 38° |
| 2026-04-21 03:12 | 32.64452 | -85.80771 | 11032 ft | 199 kts | 38° |
| 2026-04-21 03:12 | 32.65420 | -85.79590 | 11029 ft | 199 kts | 38° |
| 2026-04-21 03:13 | 32.66391 | -85.78411 | 11034 ft | 200 kts | 38° |
| 2026-04-21 03:13 | 32.67359 | -85.77229 | 11034 ft | 199 kts | 38° |
| 2026-04-21 03:13 | 32.68327 | -85.76045 | 11032 ft | 199 kts | 38° |
| 2026-04-21 03:13 | 32.69293 | -85.74867 | 11033 ft | 199 kts | 38° |
| 2026-04-21 03:14 | 32.70261 | -85.73685 | 11033 ft | 199 kts | 38° |
| 2026-04-21 03:14 | 32.71226 | -85.72506 | 11034 ft | 199 kts | 38° |
| 2026-04-21 03:14 | 32.72192 | -85.71326 | 11034 ft | 199 kts | 38° |
| 2026-04-21 03:14 | 32.73145 | -85.70156 | 11030 ft | 200 kts | 38° |
| 2026-04-21 03:15 | 32.74110 | -85.68973 | 11030 ft | 199 kts | 38° |
| 2026-04-21 03:15 | 32.75073 | -85.67791 | 11033 ft | 199 kts | 38° |
| 2026-04-21 03:15 | 32.76036 | -85.66612 | 11032 ft | 199 kts | 38° |
| 2026-04-21 03:15 | 32.77000 | -85.65432 | 11036 ft | 199 kts | 38° |
| 2026-04-21 03:16 | 32.77962 | -85.64251 | 11035 ft | 199 kts | 38° |
| 2026-04-21 03:16 | 32.78929 | -85.63068 | 11034 ft | 199 kts | 38° |
| 2026-04-21 03:16 | 32.79899 | -85.61882 | 11034 ft | 199 kts | 38° |
| 2026-04-21 03:16 | 32.80860 | -85.60699 | 11035 ft | 199 kts | 38° |
| 2026-04-21 03:17 | 32.81825 | -85.59515 | 11032 ft | 200 kts | 38° |
| 2026-04-21 03:17 | 32.82790 | -85.58328 | 11035 ft | 200 kts | 38° |
| 2026-04-21 03:17 | 32.83756 | -85.57140 | 11039 ft | 200 kts | 38° |
| 2026-04-21 03:17 | 32.84711 | -85.55965 | 11038 ft | 200 kts | 38° |
| 2026-04-21 03:18 | 32.85679 | -85.54774 | 11038 ft | 200 kts | 38° |
| 2026-04-21 03:18 | 32.86647 | -85.53586 | 11035 ft | 200 kts | 38° |
| 2026-04-21 03:18 | 32.87618 | -85.52393 | 11038 ft | 200 kts | 38° |
| 2026-04-21 03:18 | 32.88588 | -85.51200 | 11035 ft | 200 kts | 38° |
| 2026-04-21 03:19 | 32.89559 | -85.50008 | 11039 ft | 201 kts | 38° |
| 2026-04-21 03:19 | 32.90528 | -85.48809 | 11036 ft | 201 kts | 38° |
| 2026-04-21 03:19 | 32.91499 | -85.47614 | 11036 ft | 200 kts | 38° |
| 2026-04-21 03:19 | 32.92469 | -85.46423 | 11039 ft | 201 kts | 38° |
| 2026-04-21 03:20 | 32.93439 | -85.45230 | 11033 ft | 201 kts | 38° |
| 2026-04-21 03:20 | 32.94409 | -85.44035 | 11041 ft | 200 kts | 38° |
| 2026-04-21 03:20 | 32.95379 | -85.42841 | 11040 ft | 201 kts | 38° |
| 2026-04-21 03:20 | 32.96351 | -85.41642 | 11047 ft | 201 kts | 38° |
| 2026-04-21 03:21 | 32.97333 | -85.40432 | 10954 ft | 205 kts | 38° |
| 2026-04-21 03:21 | 32.98324 | -85.39212 | 10838 ft | 205 kts | 39° |
| 2026-04-21 03:21 | 32.99313 | -85.37990 | 10720 ft | 204 kts | 39° |
| 2026-04-21 03:21 | 33.00348 | -85.36845 | 10638 ft | 202 kts | 32° |
| 2026-04-21 03:22 | 33.01459 | -85.35877 | 10540 ft | 200 kts | 30° |
| 2026-04-21 03:22 | 33.02574 | -85.34894 | 10431 ft | 199 kts | 30° |
| 2026-04-21 03:22 | 33.03685 | -85.33903 | 10322 ft | 199 kts | 30° |
| 2026-04-21 03:22 | 33.04797 | -85.32921 | 10205 ft | 199 kts | 30° |
| 2026-04-21 03:23 | 33.05906 | -85.31940 | 10097 ft | 198 kts | 30° |
| 2026-04-21 03:23 | 33.07012 | -85.30965 | 10000 ft | 198 kts | 30° |
| 2026-04-21 03:23 | 33.08117 | -85.29987 | 9895 ft | 198 kts | 30° |
| 2026-04-21 03:23 | 33.09225 | -85.29010 | 9778 ft | 198 kts | 30° |
| 2026-04-21 03:24 | 33.10333 | -85.28038 | 9649 ft | 198 kts | 30° |
| 2026-04-21 03:24 | 33.11442 | -85.27062 | 9522 ft | 197 kts | 30° |
| 2026-04-21 03:24 | 33.12548 | -85.26085 | 9383 ft | 198 kts | 30° |
| 2026-04-21 03:24 | 33.13664 | -85.25104 | 9212 ft | 200 kts | 30° |
| 2026-04-21 03:25 | 33.14775 | -85.24121 | 9066 ft | 198 kts | 31° |
| 2026-04-21 03:25 | 33.15880 | -85.23149 | 8919 ft | 197 kts | 30° |
| 2026-04-21 03:25 | 33.16969 | -85.22190 | 8772 ft | 197 kts | 30° |
| 2026-04-21 03:25 | 33.18067 | -85.21220 | 8615 ft | 196 kts | 30° |
| 2026-04-21 03:26 | 33.19159 | -85.20257 | 8471 ft | 195 kts | 31° |
| 2026-04-21 03:26 | 33.20248 | -85.19294 | 8327 ft | 195 kts | 31° |
| 2026-04-21 03:26 | 33.21330 | -85.18331 | 8186 ft | 194 kts | 31° |
| 2026-04-21 03:26 | 33.22411 | -85.17373 | 8042 ft | 193 kts | 31° |
| 2026-04-21 03:27 | 33.23493 | -85.16422 | 7904 ft | 192 kts | 31° |
| 2026-04-21 03:27 | 33.24567 | -85.15474 | 7771 ft | 192 kts | 31° |
| 2026-04-21 03:27 | 33.25639 | -85.14562 | 7663 ft | 191 kts | 24° |
| 2026-04-21 03:27 | 33.26884 | -85.14073 | 7519 ft | 189 kts | 6° |
| 2026-04-21 03:28 | 33.28163 | -85.13785 | 7393 ft | 186 kts | 9° |
| 2026-04-21 03:28 | 33.28479 | -85.13704 | 7362 ft | 186 kts | 9° |
| 2026-04-21 03:28 | 33.29402 | -85.13466 | 7272 ft | 186 kts | 9° |
| 2026-04-21 03:29 | 33.30662 | -85.13146 | 7147 ft | 184 kts | 9° |
| 2026-04-21 03:29 | 33.31887 | -85.12705 | 6980 ft | 187 kts | 25° |
| 2026-04-21 03:29 | 33.32911 | -85.11682 | 6789 ft | 196 kts | 41° |
| 2026-04-21 03:29 | 33.33837 | -85.10458 | 6600 ft | 201 kts | 43° |
| 2026-04-21 03:30 | 33.34745 | -85.09172 | 6420 ft | 203 kts | 44° |
| 2026-04-21 03:30 | 33.35661 | -85.07890 | 6286 ft | 203 kts | 44° |
| 2026-04-21 03:30 | 33.36585 | -85.06622 | 6148 ft | 202 kts | 43° |
| 2026-04-21 03:30 | 33.37519 | -85.05366 | 6028 ft | 202 kts | 43° |
| 2026-04-21 03:31 | 33.38458 | -85.04116 | 5974 ft | 201 kts | 43° |
| 2026-04-21 03:31 | 33.39385 | -85.02882 | 5996 ft | 199 kts | 43° |
| 2026-04-21 03:31 | 33.40309 | -85.01664 | 5999 ft | 197 kts | 42° |
| 2026-04-21 03:31 | 33.41234 | -85.00453 | 5995 ft | 197 kts | 43° |
| 2026-04-21 03:32 | 33.42145 | -84.99259 | 5998 ft | 196 kts | 43° |
| 2026-04-21 03:32 | 33.43064 | -84.98055 | 5998 ft | 196 kts | 42° |
| 2026-04-21 03:32 | 33.43990 | -84.96850 | 6001 ft | 196 kts | 41° |
| 2026-04-21 03:32 | 33.44991 | -84.95750 | 6008 ft | 194 kts | 39° |
| 2026-04-21 03:33 | 33.45966 | -84.94624 | 5994 ft | 195 kts | 39° |
| 2026-04-21 03:33 | 33.46938 | -84.93490 | 5996 ft | 195 kts | 39° |
| 2026-04-21 03:33 | 33.47911 | -84.92357 | 5992 ft | 195 kts | 39° |
| 2026-04-21 03:33 | 33.48883 | -84.91226 | 5992 ft | 195 kts | 39° |
| 2026-04-21 03:34 | 33.49855 | -84.90097 | 5994 ft | 195 kts | 39° |
| 2026-04-21 03:34 | 33.50825 | -84.88971 | 5996 ft | 194 kts | 39° |
| 2026-04-21 03:34 | 33.51798 | -84.87837 | 5905 ft | 197 kts | 40° |
| 2026-04-21 03:34 | 33.52806 | -84.86682 | 5770 ft | 202 kts | 39° |
| 2026-04-21 03:35 | 33.53818 | -84.85522 | 5706 ft | 201 kts | 39° |
| 2026-04-21 03:35 | 33.54832 | -84.84368 | 5627 ft | 201 kts | 39° |
| 2026-04-21 03:35 | 33.55842 | -84.83210 | 5530 ft | 202 kts | 42° |
| 2026-04-21 03:35 | 33.56768 | -84.81966 | 5432 ft | 203 kts | 45° |
| 2026-04-21 03:36 | 33.57691 | -84.80685 | 5347 ft | 204 kts | 45° |
| 2026-04-21 03:36 | 33.58629 | -84.79386 | 5242 ft | 206 kts | 45° |
| 2026-04-21 03:36 | 33.59572 | -84.78079 | 5144 ft | 208 kts | 45° |
| 2026-04-21 03:36 | 33.60521 | -84.76773 | 5045 ft | 208 kts | 45° |
| 2026-04-21 03:37 | 33.61475 | -84.75468 | 4947 ft | 208 kts | 45° |
| 2026-04-21 03:37 | 33.62428 | -84.74169 | 4846 ft | 207 kts | 45° |
| 2026-04-21 03:37 | 33.63383 | -84.72882 | 4765 ft | 206 kts | 45° |
| 2026-04-21 03:37 | 33.64339 | -84.71597 | 4632 ft | 206 kts | 45° |
| 2026-04-21 03:38 | 33.65298 | -84.70312 | 4502 ft | 207 kts | 45° |
| 2026-04-21 03:38 | 33.66250 | -84.69012 | 4365 ft | 207 kts | 47° |
| 2026-04-21 03:38 | 33.67187 | -84.67702 | 4206 ft | 205 kts | 47° |
| 2026-04-21 03:38 | 33.68118 | -84.66405 | 4012 ft | 205 kts | 47° |
| 2026-04-21 03:39 | 33.69045 | -84.65110 | 3800 ft | 204 kts | 46° |
| 2026-04-21 03:39 | 33.70007 | -84.63859 | 3614 ft | 204 kts | 44° |
| 2026-04-21 03:39 | 33.70983 | -84.62628 | 3389 ft | 203 kts | 44° |
| 2026-04-21 03:39 | 33.71964 | -84.61403 | 3144 ft | 203 kts | 44° |
| 2026-04-21 03:40 | 33.72941 | -84.60179 | 2961 ft | 202 kts | 44° |
| 2026-04-21 03:40 | 33.73924 | -84.58983 | 2773 ft | 201 kts | 42° |
| 2026-04-21 03:40 | 33.74641 | -84.57581 | 2624 ft | 198 kts | 72° |
| 2026-04-21 03:40 | 33.74909 | -84.55964 | 2572 ft | 197 kts | 78° |
| 2026-04-21 03:41 | 33.75127 | -84.54342 | 2489 ft | 196 kts | 78° |
| 2026-04-21 03:41 | 33.75350 | -84.52734 | 2331 ft | 194 kts | 79° |
| 2026-04-21 03:41 | 33.75573 | -84.51157 | 2228 ft | 188 kts | 79° |
| 2026-04-21 03:41 | 33.75797 | -84.49611 | 2134 ft | 187 kts | 78° |
| 2026-04-21 03:42 | 33.76000 | -84.48093 | 2043 ft | 184 kts | 79° |
| 2026-04-21 03:42 | 33.76419 | -84.46682 | 2065 ft | 177 kts | 50° |
| 2026-04-21 03:42 | 33.77357 | -84.45879 | 2184 ft | 162 kts | 16° |
| 2026-04-21 03:42 | 33.78393 | -84.46057 | 2239 ft | 151 kts | 314° |
| 2026-04-21 03:43 | 33.78615 | -84.47155 | 2286 ft | 131 kts | 268° |
| 2026-04-21 03:43 | 33.78542 | -84.48252 | 1750 ft | 129 kts | 266° |
| 2026-04-21 03:43 | 33.78431 | -84.49254 | 1354 ft | 116 kts | 264° |
| 2026-04-21 03:43 | 33.78270 | -84.50179 | 1081 ft | 110 kts | 268° |
| 2026-04-21 03:44 | 33.78167 | -84.51023 | 856 ft | 91 kts | 268° |
| 2026-04-21 03:44 | 33.78083 | -84.51613 | 798 ft | 54 kts | 262° |
| 2026-04-21 03:44 | 33.78041 | -84.51885 | 805 ft | 23 kts | 259° |
| 2026-04-21 03:44 | 33.78016 | -84.52044 | 812 ft | 16 kts | 260° |
| 2026-04-21 03:45 | 33.77999 | -84.52160 | 811 ft | 13 kts | 259° |
| 2026-04-21 03:45 | 33.77984 | -84.52233 | 815 ft | 7 kts | 229° |
| 2026-04-21 03:45 | 33.77938 | -84.52236 | 815 ft | 7 kts | 167° |
| 2026-04-21 03:45 | 33.77887 | -84.52227 | 815 ft | 8 kts | 198° |
| 2026-04-21 03:46 | 33.77868 | -84.52276 | 816 ft | 6 kts | 258° |
| 2026-04-21 03:46 | 33.77862 | -84.52325 | 816 ft | 7 kts | 262° |
| 2026-04-21 03:46 | 33.77822 | -84.52387 | 815 ft | 13 kts | 208° |
| 2026-04-21 03:46 | 33.77738 | -84.52445 | 817 ft | 12 kts | 210° |
| 2026-04-21 03:47 | 33.77669 | -84.52437 | 817 ft | 13 kts | 130° |
| 2026-04-21 03:47 | 33.77605 | -84.52371 | 817 ft | 12 kts | 120° |
| 2026-04-21 03:47 | 33.77650 | -84.52309 | 818 ft | 11 kts | 18° |
| 2026-04-21 03:47 | 33.77712 | -84.52292 | 818 ft | 8 kts | 320° |
| 2026-04-21 03:48 | 33.77721 | -84.52306 | 817 ft | 0 kts | 299° |
| 2026-04-21 03:53 | 33.78103 | -84.51433 | 792 ft | 0 kts | 268° |